Time;durP1;ratioP1;P1;durP2;ratioP2;P2;SDS_P1;SDS_P2;PMS_P1;PMS_P2;Temp;Humidity;BMP_temperature;BMP_pressure;BME280_temperature;BME280_humidity;BME280_pressure;Samples;Min_cycle;Max_cycle;Signal;HPM_P1;HPM_P2
2021/07/24 00:00:34;;;;;;;6.15;4.68;;;20.40;99.90;;;;;;4133123;28;20042;-71
2021/07/24 00:02:35;;;;;;;7.72;5.30;;;20.40;99.90;;;;;;4126058;28;20035;-71
2021/07/24 00:04:35;;;;;;;5.93;4.38;;;20.40;99.90;;;;;;4151353;28;20033;-72
2021/07/24 00:06:36;;;;;;;6.35;4.90;;;20.40;99.90;;;;;;4125115;28;20461;-72
2021/07/24 00:08:36;;;;;;;9.40;5.50;;;20.40;99.90;;;;;;4133467;28;20375;-71
2021/07/24 00:10:37;;;;;;;6.13;4.80;;;20.30;99.90;;;;;;4149729;28;20034;-71
2021/07/24 00:12:37;;;;;;;8.32;5.15;;;20.30;99.90;;;;;;4125682;28;20044;-71
2021/07/24 00:14:38;;;;;;;6.13;4.43;;;20.30;99.90;;;;;;4148880;28;20430;-71
2021/07/24 00:16:39;;;;;;;9.15;5.22;;;20.20;99.90;;;;;;4128743;28;20034;-71
2021/07/24 00:18:39;;;;;;;6.53;4.95;;;20.20;99.90;;;;;;4142893;28;20378;-71
2021/07/24 00:20:40;;;;;;;7.72;5.03;;;20.20;99.90;;;;;;4129787;28;20029;-71
2021/07/24 00:22:40;;;;;;;7.10;5.25;;;20.20;99.90;;;;;;4146953;28;20138;-72
2021/07/24 00:24:41;;;;;;;6.90;5.05;;;20.10;99.90;;;;;;4140592;28;20049;-72
2021/07/24 00:26:42;;;;;;;6.22;4.50;;;20.10;99.90;;;;;;4134544;28;20040;-72
2021/07/24 00:28:43;;;;;;;5.88;4.70;;;20.10;99.90;;;;;;4126378;28;20050;-72
2021/07/24 00:30:43;;;;;;;6.68;5.03;;;20.00;99.90;;;;;;4141694;28;20125;-72
2021/07/24 00:32:44;;;;;;;7.70;4.80;;;20.00;99.90;;;;;;4141326;28;20034;-71
2021/07/24 00:34:44;;;;;;;7.75;5.32;;;20.10;99.90;;;;;;4128137;28;20486;-71
2021/07/24 00:36:45;;;;;;;8.25;5.15;;;20.10;99.90;;;;;;4141413;28;20243;-72
2021/07/24 00:38:45;;;;;;;6.15;4.57;;;20.10;99.90;;;;;;4142945;28;20050;-71
2021/07/24 00:40:52;;;;;;;7.97;5.13;;;20.00;99.90;;;;;;4128472;28;20489;-72
2021/07/24 00:42:53;;;;;;;6.72;4.30;;;20.00;99.90;;;;;;4141137;28;20513;-72
2021/07/24 00:45:01;;;;;;;8.15;4.00;;;20.00;99.90;;;;;;4146465;28;20120;-72
2021/07/24 00:47:02;;;;;;;5.80;4.22;;;20.00;99.90;;;;;;4145883;28;20065;-71
2021/07/24 00:49:03;;;;;;;5.63;4.22;;;20.00;99.90;;;;;;4149721;28;20053;-72
2021/07/24 00:51:03;;;;;;;5.60;4.18;;;20.10;99.90;;;;;;4142333;28;20121;-71
2021/07/24 00:53:14;;;;;;;7.35;4.32;;;20.00;99.90;;;;;;4141244;28;20570;-72
2021/07/24 00:55:16;;;;;;;6.15;4.38;;;20.00;99.90;;;;;;4143916;28;20132;-72
2021/07/24 00:57:16;;;;;;;5.85;4.40;;;20.10;99.90;;;;;;4148567;28;20092;-71
2021/07/24 00:59:18;;;;;;;5.95;4.20;;;20.10;99.90;;;;;;4146891;28;20509;-71
2021/07/24 01:01:18;;;;;;;7.40;4.68;;;20.10;99.90;;;;;;4133977;28;20045;-71
2021/07/24 01:03:20;;;;;;;5.70;4.50;;;20.10;99.90;;;;;;4128040;28;20406;-72
2021/07/24 01:05:20;;;;;;;5.80;4.30;;;20.10;99.90;;;;;;4145593;28;20109;-71
2021/07/24 01:07:22;;;;;;;7.45;4.50;;;20.20;99.90;;;;;;4150168;28;20053;-72
2021/07/24 01:09:24;;;;;;;6.97;4.93;;;20.10;99.90;;;;;;4127398;28;20116;-71
2021/07/24 01:11:25;;;;;;;6.75;5.07;;;20.10;99.90;;;;;;4146960;28;20038;-72
2021/07/24 01:13:25;;;;;;;6.78;4.57;;;20.20;99.90;;;;;;4128196;28;20104;-72
2021/07/24 01:15:26;;;;;;;8.68;4.70;;;20.20;99.90;;;;;;4149907;28;20037;-71
2021/07/24 01:17:27;;;;;;;7.30;5.13;;;20.20;99.90;;;;;;4143961;28;20034;-71
2021/07/24 01:19:28;;;;;;;7.68;4.85;;;20.20;99.90;;;;;;4143580;28;20037;-72
2021/07/24 01:21:30;;;;;;;6.30;4.90;;;20.20;99.90;;;;;;4143153;28;20034;-72
2021/07/24 01:23:31;;;;;;;7.65;5.07;;;20.20;99.90;;;;;;4146142;28;20034;-71
2021/07/24 01:25:31;;;;;;;7.13;5.30;;;20.20;99.90;;;;;;4150517;28;20053;-71
2021/07/24 01:27:44;;;;;;;6.88;4.95;;;20.20;99.90;;;;;;4149552;28;20034;-72
2021/07/24 01:29:45;;;;;;;9.95;5.18;;;20.20;99.90;;;;;;4139945;28;20054;-71
2021/07/24 01:31:46;;;;;;;6.57;4.32;;;20.20;99.90;;;;;;4146235;28;20449;-71
2021/07/24 01:33:46;;;;;;;6.68;4.97;;;20.20;99.90;;;;;;4148461;28;20067;-72
2021/07/24 01:35:48;;;;;;;8.57;4.93;;;20.20;99.90;;;;;;4130375;28;20040;-71
2021/07/24 01:37:49;;;;;;;5.68;4.30;;;20.20;99.90;;;;;;4144879;28;20042;-72
2021/07/24 01:39:49;;;;;;;11.07;4.60;;;20.20;99.90;;;;;;4126087;28;20105;-72
2021/07/24 01:41:50;;;;;;;7.20;4.85;;;20.20;99.90;;;;;;4149695;28;20433;-72
2021/07/24 01:43:50;;;;;;;4.78;3.92;;;20.10;99.90;;;;;;4149064;28;20038;-72
2021/07/24 01:45:51;;;;;;;8.50;4.70;;;20.20;99.90;;;;;;4141262;28;20026;-71
2021/07/24 01:47:51;;;;;;;7.03;5.05;;;20.10;99.90;;;;;;4129209;28;20041;-71
2021/07/24 01:52:46;;;;;;;6.38;4.57;;;20.10;99.90;;;;;;4147039;28;20033;-71
2021/07/24 01:54:54;;;;;;;7.30;5.65;;;20.10;99.90;;;;;;4110955;28;20051;-72
2021/07/24 01:56:55;;;;;;;5.55;4.88;;;20.00;99.90;;;;;;4125780;28;20038;-71
2021/07/24 01:58:56;;;;;;;6.93;5.22;;;20.00;99.90;;;;;;4122591;28;20072;-71
2021/07/24 02:01:00;;;;;;;8.23;5.32;;;20.00;99.90;;;;;;4125357;28;20530;-71
2021/07/24 02:03:11;;;;;;;6.75;5.60;;;19.90;99.90;;;;;;4127111;28;20038;-71
2021/07/24 02:05:27;;;;;;;9.40;5.63;;;19.90;99.90;;;;;;4137810;28;20030;-71
2021/07/24 02:07:30;;;;;;;7.40;5.30;;;19.80;99.90;;;;;;4124822;28;20208;-71
2021/07/24 02:09:31;;;;;;;9.38;5.47;;;19.80;99.90;;;;;;4132341;28;20078;-71
2021/07/24 02:11:32;;;;;;;6.93;5.07;;;19.80;99.90;;;;;;4124282;28;20041;-72
2021/07/24 02:13:33;;;;;;;8.95;5.47;;;19.70;99.90;;;;;;4144746;28;20112;-72
2021/07/24 02:15:33;;;;;;;7.15;5.60;;;19.80;99.90;;;;;;4142492;28;20611;-72
2021/07/24 02:17:37;;;;;;;8.88;5.90;;;19.70;99.90;;;;;;4120209;28;20042;-72
2021/07/24 02:19:38;;;;;;;6.70;4.95;;;19.60;99.90;;;;;;4146046;28;20034;-71
2021/07/24 02:21:39;;;;;;;8.80;5.70;;;19.70;99.90;;;;;;4144256;28;20430;-71
2021/07/24 02:23:39;;;;;;;8.10;5.60;;;19.60;99.90;;;;;;4144638;28;20502;-71
2021/07/24 02:25:40;;;;;;;8.10;5.93;;;19.60;99.90;;;;;;4136769;28;20137;-71
2021/07/24 02:27:49;;;;;;;7.30;5.60;;;19.60;99.90;;;;;;4146590;28;20176;-72
2021/07/24 02:29:49;;;;;;;7.65;5.30;;;19.60;99.90;;;;;;4147650;28;20041;-71
2021/07/24 02:31:50;;;;;;;6.63;5.05;;;19.60;99.90;;;;;;4147410;28;20177;-72
2021/07/24 02:33:50;;;;;;;7.53;5.63;;;19.50;99.90;;;;;;4143735;28;20147;-72
2021/07/24 02:35:51;;;;;;;10.98;5.30;;;19.50;99.90;;;;;;4132652;28;20046;-71
2021/07/24 02:37:51;;;;;;;6.40;5.13;;;19.50;99.90;;;;;;4143771;28;20345;-72
2021/07/24 02:39:52;;;;;;;8.80;5.47;;;19.50;99.90;;;;;;4130355;28;20087;-71
2021/07/24 02:41:52;;;;;;;7.15;5.00;;;19.50;99.90;;;;;;4143989;28;20398;-72
2021/07/24 02:43:53;;;;;;;8.68;5.35;;;19.50;99.90;;;;;;4149993;28;20237;-71
2021/07/24 02:45:54;;;;;;;6.88;5.03;;;19.50;99.90;;;;;;4129042;28;20405;-71
2021/07/24 02:47:54;;;;;;;6.63;5.03;;;19.50;99.90;;;;;;4132346;28;20034;-72
2021/07/24 02:49:55;;;;;;;6.90;5.40;;;19.50;99.90;;;;;;4129614;28;20081;-72
2021/07/24 02:51:56;;;;;;;6.55;4.97;;;19.50;99.90;;;;;;4146951;28;20872;-72
2021/07/24 02:53:56;;;;;;;8.85;5.63;;;19.60;99.90;;;;;;4139803;28;20034;-72
2021/07/24 02:55:57;;;;;;;11.50;6.05;;;19.50;99.90;;;;;;4140866;28;20100;-72
2021/07/24 02:57:57;;;;;;;7.60;5.75;;;19.50;99.90;;;;;;4150427;28;20372;-71
2021/07/24 02:59:58;;;;;;;9.38;6.00;;;19.50;99.90;;;;;;4147637;28;20387;-71
2021/07/24 03:01:59;;;;;;;9.00;6.13;;;19.40;99.90;;;;;;4145037;28;20040;-72
2021/07/24 03:03:59;;;;;;;7.18;5.38;;;19.40;99.90;;;;;;4126557;28;20053;-72
2021/07/24 03:06:00;;;;;;;7.90;5.38;;;19.30;99.90;;;;;;4143094;28;20536;-71
2021/07/24 03:08:00;;;;;;;9.60;6.28;;;19.30;99.90;;;;;;4139360;28;20052;-71
2021/07/24 03:10:01;;;;;;;7.63;5.45;;;19.20;99.90;;;;;;4147306;28;20161;-71
2021/07/24 03:12:03;;;;;;;11.13;5.28;;;19.20;99.90;;;;;;4150910;28;20030;-72
2021/07/24 03:14:03;;;;;;;8.48;5.93;;;19.20;99.90;;;;;;4146705;28;20037;-71
2021/07/24 03:16:04;;;;;;;8.98;6.00;;;19.20;99.90;;;;;;4146693;28;20153;-71
2021/07/24 03:18:05;;;;;;;8.88;6.38;;;19.20;99.90;;;;;;4143234;28;20034;-71
2021/07/24 03:20:06;;;;;;;8.93;6.00;;;19.10;99.90;;;;;;4142343;28;20030;-72
2021/07/24 03:22:06;;;;;;;9.65;5.97;;;19.10;99.90;;;;;;4128090;28;20522;-72
2021/07/24 03:24:07;;;;;;;8.93;6.18;;;19.10;99.90;;;;;;4146366;28;20125;-71
2021/07/24 03:26:08;;;;;;;7.57;5.68;;;19.10;99.90;;;;;;4144453;28;20052;-71
2021/07/24 03:28:09;;;;;;;8.85;6.13;;;19.10;99.90;;;;;;4147093;28;20045;-72
2021/07/24 03:30:10;;;;;;;10.25;6.63;;;19.00;99.90;;;;;;4149472;28;20507;-71
2021/07/24 03:32:11;;;;;;;10.23;6.65;;;19.10;99.90;;;;;;4149949;28;20718;-71
2021/07/24 03:34:11;;;;;;;10.50;6.90;;;19.00;99.90;;;;;;4125214;28;20046;-72
2021/07/24 03:36:12;;;;;;;10.45;7.15;;;18.90;99.90;;;;;;4150674;28;20100;-71
2021/07/24 03:38:12;;;;;;;8.02;5.90;;;18.90;99.90;;;;;;4130612;28;20080;-71
2021/07/24 03:40:13;;;;;;;8.38;6.05;;;18.90;99.90;;;;;;4134141;28;20398;-71
2021/07/24 03:42:14;;;;;;;10.75;6.32;;;18.80;99.90;;;;;;4146996;28;20061;-71
2021/07/24 03:44:14;;;;;;;10.18;6.88;;;18.80;99.90;;;;;;4144643;28;20109;-72
2021/07/24 03:46:17;;;;;;;8.90;6.28;;;18.80;99.90;;;;;;4147576;28;20033;-72
2021/07/24 03:48:17;;;;;;;9.48;6.75;;;18.70;99.90;;;;;;4151577;28;20060;-71
2021/07/24 03:50:18;;;;;;;11.02;6.68;;;18.70;99.90;;;;;;4129053;28;20043;-71
2021/07/24 03:52:18;;;;;;;8.27;6.18;;;18.70;99.90;;;;;;4147596;28;20037;-71
2021/07/24 03:54:19;;;;;;;9.55;7.25;;;18.60;99.90;;;;;;4151423;28;20164;-71
2021/07/24 03:56:20;;;;;;;9.38;6.47;;;18.60;99.90;;;;;;4144148;28;20034;-71
2021/07/24 03:58:21;;;;;;;11.05;7.38;;;18.60;99.90;;;;;;4145948;28;20045;-71
2021/07/24 04:00:23;;;;;;;11.27;7.65;;;18.60;99.90;;;;;;4143113;28;20132;-71
2021/07/24 04:02:24;;;;;;;10.33;6.50;;;18.50;99.90;;;;;;4126588;28;20033;-72
2021/07/24 04:04:25;;;;;;;9.32;6.88;;;18.50;99.90;;;;;;4150312;28;20041;-71
2021/07/24 04:06:27;;;;;;;9.35;7.25;;;18.50;99.90;;;;;;4143319;28;20038;-71
2021/07/24 04:08:29;;;;;;;9.77;6.85;;;18.50;99.90;;;;;;4147119;28;20367;-71
2021/07/24 04:10:29;;;;;;;9.23;6.43;;;18.50;99.90;;;;;;4146197;28;20112;-71
2021/07/24 04:12:31;;;;;;;8.88;6.47;;;18.50;99.90;;;;;;4132889;28;20042;-71
2021/07/24 04:14:33;;;;;;;16.88;6.60;;;18.50;99.90;;;;;;4134095;28;20172;-71
2021/07/24 04:16:33;;;;;;;9.23;6.50;;;18.50;99.90;;;;;;4132748;28;20033;-71
2021/07/24 04:18:35;;;;;;;10.02;6.07;;;18.50;99.90;;;;;;4142712;28;20041;-71
2021/07/24 04:20:37;;;;;;;8.07;6.03;;;18.60;99.90;;;;;;4148056;28;20038;-72
2021/07/24 04:22:38;;;;;;;9.27;6.43;;;18.60;99.90;;;;;;4151266;28;20160;-71
2021/07/24 04:24:38;;;;;;;9.75;6.30;;;18.60;99.90;;;;;;4145595;28;20156;-71
2021/07/24 04:26:39;;;;;;;10.98;5.53;;;18.70;99.90;;;;;;4143306;28;20046;-72
2021/07/24 04:28:40;;;;;;;10.35;6.50;;;18.70;99.90;;;;;;4133206;28;20045;-72
2021/07/24 04:30:40;;;;;;;7.97;6.47;;;18.70;99.90;;;;;;4151644;28;20029;-72
2021/07/24 04:32:41;;;;;;;7.93;6.35;;;18.80;99.90;;;;;;4144626;28;20126;-72
2021/07/24 04:34:42;;;;;;;8.68;6.47;;;18.80;99.90;;;;;;4145693;28;20033;-71
2021/07/24 04:36:42;;;;;;;10.85;7.25;;;18.80;99.90;;;;;;4146623;28;20084;-71
2021/07/24 04:38:43;;;;;;;8.80;6.20;;;18.90;99.90;;;;;;4140813;28;20034;-72
2021/07/24 04:40:44;;;;;;;10.25;6.82;;;18.90;99.90;;;;;;4150834;28;20124;-71
2021/07/24 04:42:45;;;;;;;7.97;5.72;;;18.90;99.90;;;;;;4149236;28;20044;-71
2021/07/24 04:44:45;;;;;;;9.10;6.47;;;18.90;99.90;;;;;;4148483;28;20673;-72
2021/07/24 04:46:46;;;;;;;7.82;5.68;;;18.90;99.90;;;;;;4146007;28;20129;-72
2021/07/24 04:48:47;;;;;;;11.18;6.70;;;19.00;99.90;;;;;;4126568;28;20432;-72
2021/07/24 04:50:54;;;;;;;9.75;6.20;;;19.00;99.90;;;;;;4142780;28;20034;-72
2021/07/24 04:52:54;;;;;;;11.68;7.55;;;19.00;99.90;;;;;;4148805;28;20045;-72
2021/07/24 04:54:58;;;;;;;8.98;6.95;;;19.10;99.90;;;;;;4146308;28;20033;-71
2021/07/24 04:56:59;;;;;;;11.15;6.95;;;19.10;99.90;;;;;;4150402;28;20055;-71
2021/07/24 04:59:01;;;;;;;9.82;6.45;;;19.10;99.90;;;;;;4127556;28;20041;-71
2021/07/24 05:01:02;;;;;;;9.70;6.50;;;19.10;99.90;;;;;;4149050;28;20034;-71
2021/07/24 05:03:03;;;;;;;7.68;5.97;;;19.20;99.90;;;;;;4146973;28;20141;-72
2021/07/24 05:05:04;;;;;;;9.93;6.43;;;19.20;99.90;;;;;;4130152;28;20088;-72
2021/07/24 05:07:05;;;;;;;8.60;5.93;;;19.20;99.90;;;;;;4146491;28;20038;-71
2021/07/24 05:09:08;;;;;;;7.97;6.35;;;19.30;99.90;;;;;;4147322;28;20440;-72
2021/07/24 05:11:09;;;;;;;6.97;5.38;;;19.30;99.90;;;;;;4134060;28;20092;-71
2021/07/24 05:13:10;;;;;;;9.32;6.20;;;19.30;99.90;;;;;;4147678;28;20045;-71
2021/07/24 05:15:10;;;;;;;8.23;6.18;;;19.40;99.90;;;;;;4144706;28;20143;-72
2021/07/24 05:17:12;;;;;;;9.43;6.50;;;19.40;99.90;;;;;;4128984;28;20026;-72
2021/07/24 05:19:13;;;;;;;9.10;6.53;;;19.50;99.90;;;;;;4146483;28;20494;-71
2021/07/24 05:21:18;;;;;;;9.23;6.00;;;19.50;99.90;;;;;;4129439;28;20034;-71
2021/07/24 05:23:18;;;;;;;12.70;6.47;;;19.50;99.90;;;;;;4127151;28;20104;-72
2021/07/24 05:25:19;;;;;;;7.97;6.05;;;19.60;99.90;;;;;;4132527;28;20485;-71
2021/07/24 05:27:19;;;;;;;13.38;6.68;;;19.60;99.90;;;;;;4145139;28;20136;-71
2021/07/24 05:29:20;;;;;;;11.60;6.70;;;19.70;99.90;;;;;;4140714;28;20038;-72
2021/07/24 05:31:21;;;;;;;9.13;6.75;;;19.70;99.90;;;;;;4129799;28;20034;-71
2021/07/24 05:33:22;;;;;;;8.90;7.00;;;19.70;99.90;;;;;;4141611;28;20109;-72
2021/07/24 05:35:22;;;;;;;10.60;6.93;;;19.70;99.90;;;;;;4147253;28;20064;-72
2021/07/24 05:37:23;;;;;;;9.85;6.43;;;19.80;99.90;;;;;;4118702;28;20043;-72
2021/07/24 05:39:23;;;;;;;9.98;6.78;;;19.80;99.90;;;;;;4140386;28;20103;-72
2021/07/24 05:41:24;;;;;;;9.18;6.45;;;19.90;99.90;;;;;;4141746;28;20057;-71
2021/07/24 05:43:25;;;;;;;8.23;6.03;;;19.90;99.90;;;;;;4129731;28;20125;-71
2021/07/24 05:45:25;;;;;;;9.77;7.25;;;19.90;99.90;;;;;;4130130;28;20026;-71
2021/07/24 05:47:26;;;;;;;9.15;6.57;;;20.00;99.90;;;;;;4147820;28;20022;-72
2021/07/24 05:49:26;;;;;;;8.73;6.47;;;20.00;99.90;;;;;;4138896;28;20399;-72
2021/07/24 05:51:27;;;;;;;8.32;6.22;;;20.00;99.90;;;;;;4146581;28;20066;-72
2021/07/24 05:53:27;;;;;;;10.80;7.35;;;20.10;99.90;;;;;;4149744;28;20359;-71
2021/07/24 05:55:28;;;;;;;9.80;6.35;;;20.10;99.90;;;;;;4146658;28;20493;-72
2021/07/24 05:57:29;;;;;;;9.93;6.72;;;20.10;99.90;;;;;;4141614;28;20084;-72
2021/07/24 05:59:29;;;;;;;9.55;6.85;;;20.10;99.90;;;;;;4138495;28;20045;-71
2021/07/24 06:01:30;;;;;;;10.57;6.53;;;20.10;99.90;;;;;;4150756;28;20486;-71
2021/07/24 06:03:30;;;;;;;13.13;7.53;;;20.10;99.90;;;;;;4148347;28;20176;-71
2021/07/24 06:05:31;;;;;;;10.15;7.00;;;20.10;99.90;;;;;;4127973;28;20042;-72
2021/07/24 06:07:31;;;;;;;9.70;6.68;;;20.20;99.90;;;;;;4138871;28;20053;-72
2021/07/24 06:09:32;;;;;;;10.13;7.18;;;20.10;99.90;;;;;;4121384;28;20578;-71
2021/07/24 06:11:34;;;;;;;9.25;6.57;;;20.10;99.90;;;;;;4129406;28;20121;-72
2021/07/24 06:13:34;;;;;;;11.13;7.68;;;20.20;99.90;;;;;;4130947;28;20363;-72
2021/07/24 06:15:41;;;;;;;12.38;7.07;;;20.10;99.90;;;;;;4124073;28;20037;-72
2021/07/24 06:17:42;;;;;;;10.25;7.28;;;20.20;99.90;;;;;;4137434;28;20381;-71
2021/07/24 06:19:43;;;;;;;10.15;7.07;;;20.20;99.90;;;;;;4137619;28;20026;-72
2021/07/24 06:21:45;;;;;;;9.13;6.13;;;20.30;99.90;;;;;;4144520;28;20030;-72
2021/07/24 06:23:46;;;;;;;9.50;6.50;;;20.30;99.90;;;;;;4139218;28;20486;-72
2021/07/24 06:25:48;;;;;;;12.20;8.02;;;20.40;99.90;;;;;;4140297;28;20114;-72
2021/07/24 06:27:48;;;;;;;9.73;7.00;;;20.50;99.90;;;;;;4124328;28;20057;-71
2021/07/24 06:29:49;;;;;;;10.98;7.45;;;20.50;99.90;;;;;;4122652;28;20038;-72
2021/07/24 06:31:49;;;;;;;14.15;6.57;;;20.60;99.90;;;;;;4135111;28;20022;-72
2021/07/24 06:33:50;;;;;;;10.18;6.93;;;20.70;99.90;;;;;;4146088;28;20040;-72
2021/07/24 06:35:51;;;;;;;9.75;7.10;;;20.70;99.90;;;;;;4135329;28;20038;-72
2021/07/24 06:37:52;;;;;;;13.38;8.63;;;20.80;99.90;;;;;;4144853;28;20038;-72
2021/07/24 06:39:54;;;;;;;16.95;8.60;;;20.90;99.90;;;;;;4141256;28;20042;-72
2021/07/24 06:41:55;;;;;;;9.73;7.15;;;20.90;99.90;;;;;;4137584;28;20428;-72
2021/07/24 06:43:56;;;;;;;13.07;7.80;;;20.90;99.90;;;;;;4144221;28;20065;-74
2021/07/24 06:45:56;;;;;;;11.48;8.00;;;20.90;99.90;;;;;;4135309;28;20060;-74
2021/07/24 06:47:57;;;;;;;12.38;8.27;;;20.90;99.90;;;;;;4129901;28;20031;-74
2021/07/24 06:49:58;;;;;;;9.95;7.07;;;20.80;99.90;;;;;;4146107;28;20479;-74
2021/07/24 06:51:58;;;;;;;11.43;8.00;;;20.90;99.90;;;;;;4144713;28;20482;-74
2021/07/24 06:53:59;;;;;;;14.90;7.30;;;20.80;99.90;;;;;;4145676;28;20083;-73
2021/07/24 06:56:00;;;;;;;11.25;7.28;;;20.80;99.90;;;;;;4131974;28;20311;-74
2021/07/24 06:58:01;;;;;;;9.90;6.90;;;20.80;99.90;;;;;;4151097;28;20605;-74
2021/07/24 07:00:02;;;;;;;14.27;7.90;;;20.80;99.90;;;;;;4139908;28;20088;-74
2021/07/24 07:02:05;;;;;;;12.38;8.23;;;20.80;99.90;;;;;;4134550;28;20046;-73
2021/07/24 07:04:06;;;;;;;11.73;7.65;;;20.80;99.90;;;;;;4140302;28;20398;-74
2021/07/24 07:06:07;;;;;;;15.98;7.72;;;20.90;99.90;;;;;;4139579;28;20515;-74
2021/07/24 07:08:08;;;;;;;11.77;7.45;;;20.90;99.90;;;;;;4146741;28;20037;-74
2021/07/24 07:10:09;;;;;;;11.65;8.20;;;20.90;99.90;;;;;;4144887;28;20124;-74
2021/07/24 07:12:09;;;;;;;12.75;7.97;;;20.90;99.90;;;;;;4143470;28;20105;-74
2021/07/24 07:14:10;;;;;;;14.63;8.93;;;20.90;99.90;;;;;;4142722;28;20441;-74
2021/07/24 07:16:10;;;;;;;14.60;8.48;;;20.90;99.90;;;;;;4145475;28;20057;-74
2021/07/24 07:18:11;;;;;;;13.60;7.88;;;20.90;99.90;;;;;;4101736;28;20027;-74
2021/07/24 07:20:12;;;;;;;13.00;8.13;;;21.00;99.90;;;;;;4141365;28;20096;-74
2021/07/24 07:22:12;;;;;;;11.30;7.38;;;21.00;99.90;;;;;;4145812;28;20097;-74
2021/07/24 07:24:13;;;;;;;15.35;8.65;;;21.00;99.90;;;;;;4144832;28;20048;-74
2021/07/24 07:26:21;;;;;;;16.83;9.63;;;21.10;99.90;;;;;;4144156;28;20076;-74
2021/07/24 07:28:21;;;;;;;12.85;8.23;;;21.00;99.90;;;;;;4145079;28;20038;-75
2021/07/24 07:30:22;;;;;;;16.08;8.75;;;21.10;99.90;;;;;;4146443;28;20029;-74
2021/07/24 07:32:23;;;;;;;13.15;8.13;;;21.00;99.90;;;;;;4131472;28;20057;-74
2021/07/24 07:34:23;;;;;;;15.70;8.07;;;21.10;99.90;;;;;;4141076;28;20033;-74
2021/07/24 07:36:24;;;;;;;14.02;7.95;;;21.10;99.90;;;;;;4140391;28;20073;-74
2021/07/24 07:38:24;;;;;;;12.95;7.75;;;21.10;99.90;;;;;;4140813;28;20084;-75
2021/07/24 07:40:25;;;;;;;12.00;7.68;;;21.20;99.90;;;;;;4139707;28;20061;-74
2021/07/24 07:42:26;;;;;;;23.00;8.63;;;21.20;99.90;;;;;;4130829;28;20050;-74
2021/07/24 07:44:28;;;;;;;12.55;8.27;;;21.20;99.90;;;;;;4125660;28;20046;-74
2021/07/24 07:46:29;;;;;;;9.80;6.47;;;21.30;99.90;;;;;;4143089;28;20038;-74
2021/07/24 07:48:37;;;;;;;11.43;6.72;;;21.30;99.90;;;;;;4147885;28;20033;-74
2021/07/24 07:50:37;;;;;;;12.60;7.82;;;21.30;99.90;;;;;;4119095;28;20081;-75
2021/07/24 07:52:38;;;;;;;9.13;6.65;;;21.40;99.90;;;;;;4144552;28;20056;-74
2021/07/24 07:54:39;;;;;;;12.63;7.53;;;21.40;99.90;;;;;;4124924;28;20067;-75
2021/07/24 07:56:39;;;;;;;10.18;7.28;;;21.50;99.90;;;;;;4127587;28;20426;-74
2021/07/24 07:58:40;;;;;;;12.02;6.68;;;21.50;99.90;;;;;;4145597;28;20033;-75
2021/07/24 08:00:41;;;;;;;10.43;6.65;;;21.50;99.90;;;;;;4141266;28;20034;-75
2021/07/24 08:02:41;;;;;;;11.52;6.63;;;21.60;99.90;;;;;;4146198;28;20038;-74
2021/07/24 08:04:42;;;;;;;13.90;7.45;;;21.60;99.90;;;;;;4142237;28;21558;-74
2021/07/24 08:06:42;;;;;;;14.10;7.10;;;21.70;99.90;;;;;;4134449;28;20049;-74
2021/07/24 08:08:43;;;;;;;11.52;6.72;;;21.80;99.90;;;;;;4150525;28;20044;-75
2021/07/24 08:10:44;;;;;;;11.48;7.45;;;21.90;99.90;;;;;;4144911;28;20525;-75
2021/07/24 08:12:44;;;;;;;10.88;7.57;;;21.90;99.90;;;;;;4146601;28;20055;-74
2021/07/24 08:14:45;;;;;;;15.52;8.07;;;22.00;99.90;;;;;;4141496;28;20026;-75
2021/07/24 08:16:45;;;;;;;12.45;7.65;;;22.00;99.90;;;;;;4120737;28;20035;-75
2021/07/24 08:18:46;;;;;;;9.80;6.95;;;22.10;99.90;;;;;;4149529;28;20044;-74
2021/07/24 08:20:47;;;;;;;13.45;7.50;;;22.20;99.90;;;;;;4140738;28;20067;-74
2021/07/24 08:22:49;;;;;;;11.50;7.05;;;22.30;99.90;;;;;;4144157;28;20593;-74
2021/07/24 08:24:50;;;;;;;13.35;7.10;;;22.30;99.90;;;;;;4140927;28;20026;-75
2021/07/24 08:26:50;;;;;;;10.95;7.03;;;22.30;99.90;;;;;;4123382;28;20023;-75
2021/07/24 08:28:51;;;;;;;13.40;6.90;;;22.40;99.90;;;;;;4145489;28;20064;-76
2021/07/24 08:30:51;;;;;;;11.20;7.53;;;22.50;99.90;;;;;;4139264;28;20037;-75
2021/07/24 08:32:52;;;;;;;10.95;7.28;;;22.60;99.90;;;;;;4142862;28;20274;-74
2021/07/24 08:34:53;;;;;;;14.52;6.80;;;22.60;99.90;;;;;;4138917;28;20112;-74
2021/07/24 08:36:53;;;;;;;9.10;6.47;;;22.70;99.90;;;;;;4140623;28;20388;-75
2021/07/24 08:38:54;;;;;;;10.90;6.30;;;22.80;99.90;;;;;;4144982;28;20046;-75
2021/07/24 08:40:55;;;;;;;11.18;6.45;;;22.80;99.90;;;;;;4143444;28;20045;-75
2021/07/24 08:43:01;;;;;;;9.32;6.55;;;22.90;99.90;;;;;;4140444;28;20175;-75
2021/07/24 08:45:03;;;;;;;11.02;6.60;;;23.00;99.90;;;;;;4120608;28;20042;-75
2021/07/24 08:47:04;;;;;;;9.75;6.35;;;23.10;99.90;;;;;;4110865;28;20083;-75
2021/07/24 08:49:05;;;;;;;8.70;6.03;;;23.10;99.90;;;;;;4134472;28;21547;-75
2021/07/24 08:51:07;;;;;;;12.50;7.03;;;23.20;99.90;;;;;;4123765;28;20027;-75
2021/07/24 08:53:08;;;;;;;10.77;7.07;;;23.20;99.90;;;;;;4126158;28;20316;-75
2021/07/24 08:55:09;;;;;;;18.48;9.02;;;23.30;99.90;;;;;;4139759;28;20033;-73
2021/07/24 08:57:13;;;;;;;11.63;7.50;;;23.40;99.90;;;;;;4143702;28;20104;-73
2021/07/24 08:59:17;;;;;;;12.52;6.80;;;23.40;99.90;;;;;;4122505;28;20066;-73
2021/07/24 09:01:22;;;;;;;10.50;6.63;;;23.50;99.90;;;;;;4144901;28;20034;-72
2021/07/24 09:03:25;;;;;;;14.82;7.63;;;23.50;99.90;;;;;;4142840;28;20033;-72
2021/07/24 09:05:28;;;;;;;10.02;6.70;;;23.60;99.90;;;;;;4144768;28;20534;-72
2021/07/24 09:07:32;;;;;;;10.10;6.55;;;23.70;99.90;;;;;;4124694;28;20121;-72
2021/07/24 09:09:33;;;;;;;10.13;6.07;;;23.70;99.90;;;;;;4142624;28;20284;-72
2021/07/24 09:11:34;;;;;;;8.15;5.95;;;23.80;99.90;;;;;;4140481;28;20092;-72
2021/07/24 09:13:34;;;;;;;13.30;7.25;;;23.80;99.90;;;;;;4142109;28;20283;-72
2021/07/24 09:15:35;;;;;;;10.63;6.88;;;23.80;99.90;;;;;;4126233;28;20477;-72
2021/07/24 09:17:36;;;;;;;8.77;6.35;;;23.80;99.90;;;;;;4141451;28;20033;-72
2021/07/24 09:19:38;;;;;;;8.88;5.93;;;23.90;99.90;;;;;;4142949;28;20061;-72
2021/07/24 09:21:39;;;;;;;8.18;5.72;;;24.00;99.90;;;;;;4137856;28;20034;-72
2021/07/24 09:23:39;;;;;;;8.85;6.30;;;24.00;99.90;;;;;;4146377;28;20053;-72
2021/07/24 09:25:42;;;;;;;12.15;5.85;;;24.00;99.90;;;;;;4124767;28;20080;-72
2021/07/24 09:27:52;;;;;;;;;;;24.00;99.90;;;;;;4147654;28;20029;-72
2021/07/24 09:29:52;;;;;;;8.63;5.72;;;24.00;99.90;;;;;;4138162;28;19917;-72
2021/07/24 09:31:53;;;;;;;8.88;6.20;;;24.00;99.90;;;;;;4125865;28;20260;-72
2021/07/24 09:33:54;;;;;;;8.07;5.90;;;24.00;99.90;;;;;;4134614;28;20045;-72
2021/07/24 09:35:55;;;;;;;10.27;6.13;;;24.10;99.90;;;;;;4125665;28;20039;-72
2021/07/24 09:37:55;;;;;;;8.35;5.65;;;24.10;99.90;;;;;;4128216;28;20326;-72
2021/07/24 09:40:17;;;;;;;10.73;6.88;;;24.10;99.90;;;;;;4125615;28;20448;-72
2021/07/24 09:42:20;;;;;;;7.38;5.68;;;24.10;99.90;;;;;;4111731;28;20039;-72
2021/07/24 09:44:32;;;;;;;9.82;6.35;;;24.10;99.90;;;;;;4141469;28;20039;-72
2021/07/24 09:46:33;;;;;;;8.05;5.80;;;24.10;99.90;;;;;;4127606;28;20226;-72
2021/07/24 09:48:34;;;;;;;9.00;6.15;;;24.10;99.90;;;;;;4118635;28;20086;-72
2021/07/24 09:50:34;;;;;;;9.27;6.20;;;24.10;99.90;;;;;;4123522;28;20027;-72
2021/07/24 09:52:48;;;;;;;11.43;6.88;;;24.20;99.90;;;;;;4139786;28;20069;-72
2021/07/24 09:54:49;;;;;;;9.32;6.55;;;24.10;99.90;;;;;;4124189;28;20198;-72
2021/07/24 09:56:50;;;;;;;10.20;6.55;;;24.10;99.90;;;;;;4137275;28;20033;-72
2021/07/24 09:58:50;;;;;;;8.68;6.35;;;24.10;99.90;;;;;;4123888;28;20189;-72
2021/07/24 10:01:04;;;;;;;10.20;7.35;;;24.10;99.90;;;;;;4141509;28;20030;-72
2021/07/24 10:03:06;;;;;;;12.38;6.95;;;24.10;99.90;;;;;;4142705;28;20393;-72
2021/07/24 10:05:07;;;;;;;10.57;7.32;;;24.10;99.90;;;;;;4138188;28;20092;-72
2021/07/24 10:07:09;;;;;;;10.57;6.85;;;24.10;99.90;;;;;;4140414;28;20030;-72
2021/07/24 10:09:11;;;;;;;9.20;6.97;;;24.10;99.90;;;;;;4117400;28;20549;-72
2021/07/24 10:11:11;;;;;;;10.48;6.95;;;24.10;99.90;;;;;;4122897;28;20600;-72
2021/07/24 10:13:13;;;;;;;13.18;7.47;;;24.10;99.90;;;;;;4143767;28;20044;-72
2021/07/24 10:15:14;;;;;;;13.32;8.60;;;24.10;99.90;;;;;;4143294;28;20377;-71
2021/07/24 10:17:16;;;;;;;11.05;8.07;;;24.10;99.90;;;;;;4122547;28;20042;-72
2021/07/24 10:19:17;;;;;;;15.00;8.43;;;24.10;99.90;;;;;;4139180;28;20034;-72
2021/07/24 10:21:19;;;;;;;16.77;10.32;;;24.10;99.90;;;;;;4139895;28;20041;-71
2021/07/24 10:23:26;;;;;;;18.98;11.55;;;24.10;99.90;;;;;;4142934;28;20045;-72
2021/07/24 10:25:27;;;;;;;16.70;10.57;;;24.10;99.90;;;;;;4139861;28;20043;-72
2021/07/24 10:27:32;;;;;;;14.07;9.30;;;24.10;99.90;;;;;;4134460;28;20498;-72
2021/07/24 10:29:38;;;;;;;17.35;11.35;;;24.10;99.90;;;;;;4134737;28;20096;-72
2021/07/24 10:32:07;;;;;;;14.15;9.63;;;24.10;99.90;;;;;;4139862;28;20042;-72